createdAt,value
2023-01-25T00:00:51.863Z,102869.86
2023-01-25T00:03:26.905Z,102869.94
2023-01-25T00:06:00.320Z,102872.53
2023-01-25T00:08:28.848Z,102871.83
2023-01-25T00:10:58.519Z,102866.95
2023-01-25T00:13:27.196Z,102869.97
2023-01-25T00:16:01.706Z,102870.45
2023-01-25T00:18:30.203Z,102876.00
2023-01-25T00:20:58.425Z,102875.96
2023-01-25T00:23:26.700Z,102875.23
2023-01-25T00:25:58.738Z,102870.02
2023-01-25T00:28:27.302Z,102868.63
2023-01-25T00:30:59.877Z,102858.47
2023-01-25T00:33:40.515Z,102851.95
2023-01-25T00:36:41.127Z,102850.44
2023-01-25T00:39:11.988Z,102851.25
2023-01-25T00:41:40.293Z,102846.02
2023-01-25T00:44:08.750Z,102844.92
2023-01-25T00:46:36.987Z,102842.41
2023-01-25T00:49:08.017Z,102849.92
2023-01-25T00:51:35.359Z,102851.55
2023-01-25T00:54:03.770Z,102853.73
2023-01-25T00:56:32.065Z,102845.59
2023-01-25T00:59:00.529Z,102839.91
2023-01-25T01:01:29.358Z,102835.96
2023-01-25T01:03:57.634Z,102835.61
2023-01-25T01:06:25.917Z,102834.17
2023-01-25T01:08:54.332Z,102829.09
2023-01-25T01:11:23.700Z,102834.38
2023-01-25T01:13:52.194Z,102828.89
2023-01-25T01:16:20.456Z,102831.69
2023-01-25T01:18:48.704Z,102832.29
2023-01-25T01:21:17.089Z,102827.20
2023-01-25T01:23:45.540Z,102828.44
2023-01-25T01:26:14.999Z,102830.88
2023-01-25T01:28:43.556Z,102830.00
2023-01-25T01:31:12.029Z,102824.27
2023-01-25T01:33:42.376Z,102824.18
2023-01-25T01:36:13.003Z,102824.73
2023-01-25T01:38:41.340Z,102828.27
2023-01-25T01:41:09.997Z,102823.24
2023-01-25T01:43:39.044Z,102825.01
2023-01-25T01:46:14.473Z,102812.85
2023-01-25T01:48:45.661Z,102813.77
2023-01-25T01:51:19.497Z,102814.75
2023-01-25T01:53:51.228Z,102815.45
2023-01-25T01:56:23.987Z,102805.42
2023-01-25T01:58:54.078Z,102818.64
2023-01-25T02:01:22.414Z,102817.31
2023-01-25T02:03:51.062Z,102814.52
2023-01-25T02:06:20.285Z,102818.29
2023-01-25T02:08:48.627Z,102816.58
2023-01-25T02:11:17.224Z,102811.79
2023-01-25T02:13:45.429Z,102806.52
2023-01-25T02:16:18.817Z,102798.16
2023-01-25T02:18:47.256Z,102798.35
2023-01-25T02:21:15.556Z,102800.35
2023-01-25T02:23:47.876Z,102799.00
2023-01-25T02:26:18.035Z,102794.00
2023-01-25T02:28:49.303Z,102796.10
2023-01-25T02:31:17.940Z,102795.65
2023-01-25T02:33:46.237Z,102795.61
2023-01-25T02:36:21.951Z,102790.46
2023-01-25T02:38:54.003Z,102787.73
2023-01-25T02:41:33.763Z,102785.84
2023-01-25T02:44:03.933Z,102783.59
2023-01-25T02:46:33.850Z,102777.67
2023-01-25T02:49:05.260Z,102779.91
2023-01-25T02:51:35.330Z,102778.23
2023-01-25T02:54:05.111Z,102779.14
2023-01-25T02:56:33.324Z,102780.41
2023-01-25T02:59:04.840Z,102780.69
2023-01-25T03:01:34.745Z,102782.36
2023-01-25T03:04:04.752Z,102779.03
2023-01-25T03:06:33.214Z,102780.99
2023-01-25T03:09:01.866Z,102776.52
2023-01-25T03:11:30.323Z,102777.75
2023-01-25T03:13:58.712Z,102772.91
2023-01-25T03:16:27.027Z,102768.23
2023-01-25T03:18:57.349Z,102763.31
2023-01-25T03:21:26.144Z,102752.54
2023-01-25T03:23:58.783Z,102746.39
2023-01-25T03:26:28.182Z,102744.53
2023-01-25T03:29:09.730Z,102743.23
2023-01-25T03:31:40.049Z,102742.56
2023-01-25T03:34:08.700Z,102738.09
2023-01-25T03:36:39.863Z,102740.83
2023-01-25T03:39:08.189Z,102741.75
2023-01-25T03:41:40.795Z,102728.66
2023-01-25T03:44:12.006Z,102717.13
2023-01-25T03:46:41.066Z,102712.00
2023-01-25T03:49:09.995Z,102721.17
2023-01-25T03:51:39.196Z,102717.63
2023-01-25T03:54:09.484Z,102720.56
2023-01-25T03:56:38.450Z,102723.66
2023-01-25T03:59:17.395Z,102730.50
2023-01-25T04:01:45.828Z,102750.55
2023-01-25T04:04:14.173Z,102761.76
2023-01-25T04:06:44.382Z,102744.18
2023-01-25T04:09:13.811Z,102733.94
2023-01-25T04:11:46.276Z,102729.71
2023-01-25T04:14:14.873Z,102728.20
2023-01-25T04:16:54.933Z,102725.56
2023-01-25T04:19:39.635Z,102718.59
2023-01-25T04:22:12.252Z,102710.89
2023-01-25T04:24:40.698Z,102717.53
2023-01-25T04:27:09.474Z,102703.33
2023-01-25T04:29:44.111Z,102716.45
2023-01-25T04:32:16.894Z,102726.94
2023-01-25T04:34:45.235Z,102723.95
2023-01-25T04:37:16.411Z,102721.16
2023-01-25T04:39:52.371Z,102714.20
2023-01-25T04:42:20.204Z,102712.27
2023-01-25T04:44:51.371Z,102708.55
2023-01-25T04:47:19.849Z,102702.72
2023-01-25T04:49:48.325Z,102703.94
2023-01-25T04:52:18.650Z,102699.19
2023-01-25T04:54:47.129Z,102700.48
2023-01-25T04:57:15.661Z,102698.02
2023-01-25T04:59:47.789Z,102705.66
2023-01-25T05:02:16.414Z,102701.61
2023-01-25T05:04:44.852Z,102700.99
2023-01-25T05:07:14.036Z,102697.52
2023-01-25T05:09:43.230Z,102692.75
2023-01-25T05:12:13.093Z,102688.40
2023-01-25T05:14:54.020Z,102682.34
2023-01-25T05:17:22.532Z,102690.13
2023-01-25T05:19:50.957Z,102689.69
2023-01-25T05:22:22.369Z,102685.50
2023-01-25T05:24:53.522Z,102687.31
2023-01-25T05:27:22.193Z,102687.19
2023-01-25T05:29:57.014Z,102686.89
2023-01-25T05:32:39.799Z,102685.83
2023-01-25T05:35:09.617Z,102687.09
2023-01-25T05:37:39.203Z,102685.55
2023-01-25T05:40:12.156Z,102686.56
2023-01-25T05:42:41.075Z,102688.42
2023-01-25T05:45:15.657Z,102688.96
2023-01-25T05:47:44.403Z,102689.17
2023-01-25T05:50:12.729Z,102688.55
2023-01-25T05:53:01.321Z,102691.77
2023-01-25T05:55:29.232Z,102686.45
2023-01-25T05:57:58.513Z,102685.87
2023-01-25T06:00:27.189Z,102684.92
2023-01-25T06:02:56.345Z,102688.83
2023-01-25T06:05:26.343Z,102684.96
2023-01-25T06:07:56.117Z,102683.18
2023-01-25T06:10:27.113Z,102674.35
2023-01-25T06:12:59.730Z,102675.91
2023-01-25T06:15:28.131Z,102677.73
2023-01-25T06:18:02.058Z,102673.64
2023-01-25T06:21:02.924Z,102671.33
2023-01-25T06:23:37.570Z,102663.18
2023-01-25T06:26:07.341Z,102660.21
2023-01-25T06:28:37.218Z,102663.87
2023-01-25T06:31:09.932Z,102673.66
2023-01-25T06:33:38.350Z,102679.00
2023-01-25T06:36:10.903Z,102677.27
2023-01-25T06:38:39.478Z,102674.61
2023-01-25T06:41:11.089Z,102670.92
2023-01-25T06:43:40.181Z,102669.75
2023-01-25T06:46:09.556Z,102671.56
2023-01-25T06:48:37.831Z,102670.79
2023-01-25T06:51:08.234Z,102650.83
2023-01-25T06:53:38.887Z,102673.36
2023-01-25T06:56:10.847Z,102676.91
2023-01-25T06:58:40.676Z,102665.85
2023-01-25T07:01:13.297Z,102666.09
2023-01-25T07:03:42.106Z,102662.23
2023-01-25T07:06:11.482Z,102657.05
2023-01-25T07:08:39.799Z,102658.08
2023-01-25T07:11:13.133Z,102646.80
2023-01-25T07:13:42.404Z,102635.33
2023-01-25T07:16:13.827Z,102632.95
2023-01-25T07:18:42.045Z,102633.12
2023-01-25T07:21:12.167Z,102636.30
2023-01-25T07:23:40.982Z,102630.73
2023-01-25T07:26:15.577Z,102629.14
2023-01-25T07:28:43.871Z,102631.04
2023-01-25T07:31:12.165Z,102629.26
2023-01-25T07:33:40.592Z,102630.52
2023-01-25T07:36:10.227Z,102627.06
2023-01-25T07:38:38.461Z,102631.95
2023-01-25T07:41:06.930Z,102633.90
2023-01-25T07:43:35.167Z,102633.53
2023-01-25T07:46:06.486Z,102634.32
2023-01-25T07:48:35.100Z,102629.75
2023-01-25T07:51:26.392Z,102632.45
2023-01-25T07:53:56.111Z,102638.64
2023-01-25T07:56:25.910Z,102623.80
2023-01-25T07:58:54.523Z,102636.71
2023-01-25T08:01:24.042Z,102632.65
2023-01-25T08:03:52.992Z,102632.72
2023-01-25T08:06:26.735Z,102630.85
2023-01-25T08:08:55.044Z,102630.65
2023-01-25T08:11:24.986Z,102634.03
2023-01-25T08:13:53.416Z,102633.89
2023-01-25T08:16:23.231Z,102631.17
2023-01-25T08:18:52.572Z,102626.85
2023-01-25T08:21:23.545Z,102630.15
2023-01-25T08:23:52.292Z,102632.74
2023-01-25T08:26:20.759Z,102624.98
2023-01-25T08:28:48.923Z,102619.41
2023-01-25T08:31:20.497Z,102619.41
2023-01-25T08:33:49.307Z,102616.02
2023-01-25T08:36:17.853Z,102613.27
2023-01-25T08:38:46.461Z,102607.13
2023-01-25T08:41:15.643Z,102604.34
2023-01-25T08:43:45.132Z,102601.25
2023-01-25T08:46:15.259Z,102596.66
2023-01-25T08:48:43.519Z,102595.48
2023-01-25T08:51:13.456Z,102595.83
2023-01-25T08:53:41.831Z,102600.31
2023-01-25T08:56:11.052Z,102595.90
2023-01-25T08:58:41.295Z,102592.48
2023-01-25T09:01:10.947Z,102591.02
2023-01-25T09:03:41.072Z,102589.96
2023-01-25T09:06:10.110Z,102586.38
2023-01-25T09:08:38.823Z,102584.88
2023-01-25T09:11:06.814Z,102583.66
2023-01-25T09:13:35.096Z,102581.89
2023-01-25T09:16:05.281Z,102581.57
2023-01-25T09:18:34.335Z,102581.54
2023-01-25T09:21:07.744Z,102581.20
2023-01-25T09:23:50.302Z,102574.52
2023-01-25T09:26:19.752Z,102570.67
2023-01-25T09:28:50.319Z,102568.95
2023-01-25T09:31:22.808Z,102568.72
2023-01-25T09:34:10.558Z,102562.52
2023-01-25T09:36:39.018Z,102567.43
2023-01-25T09:39:07.331Z,102562.52
2023-01-25T09:42:24.842Z,102557.87
2023-01-25T09:45:05.563Z,102549.73
2023-01-25T09:47:39.571Z,102543.35
2023-01-25T09:50:38.287Z,102520.98
2023-01-25T09:53:23.575Z,102530.64
2023-01-25T09:55:53.411Z,102527.51
2023-01-25T09:58:24.460Z,102528.85
2023-01-25T10:00:58.529Z,102528.19
2023-01-25T10:03:31.700Z,102527.30
2023-01-25T10:06:01.933Z,102528.81
2023-01-25T10:08:34.166Z,102525.26
2023-01-25T10:11:12.058Z,102521.34
2023-01-25T10:13:40.288Z,102515.31
2023-01-25T10:16:25.000Z,102512.95
2023-01-25T10:18:59.799Z,102503.88
2023-01-25T10:21:30.658Z,102496.80
2023-01-25T10:24:27.248Z,102492.90
2023-01-25T10:26:58.096Z,102494.70
2023-01-25T10:29:28.709Z,102486.17
2023-01-25T10:32:01.893Z,102487.69
2023-01-25T10:34:34.121Z,102485.52
2023-01-25T10:37:12.430Z,102482.25
2023-01-25T10:39:44.839Z,102476.45
2023-01-25T10:42:15.372Z,102472.60
2023-01-25T10:44:43.634Z,102465.15
2023-01-25T10:47:24.504Z,102461.64
2023-01-25T10:49:54.420Z,102455.48
2023-01-25T10:52:24.413Z,102458.58
2023-01-25T10:55:11.135Z,102457.88
2023-01-25T10:57:43.505Z,102457.98
2023-01-25T11:00:23.147Z,102455.04
2023-01-25T11:02:53.189Z,102456.80
2023-01-25T11:05:33.434Z,102450.96
2023-01-25T11:08:20.361Z,102445.99
2023-01-25T11:10:48.949Z,102438.79
2023-01-25T11:13:22.239Z,102435.67
2023-01-25T11:15:52.893Z,102426.49
2023-01-25T11:18:22.886Z,102426.83
2023-01-25T11:21:05.606Z,102424.52
2023-01-25T11:23:34.018Z,102411.80
2023-01-25T11:26:16.352Z,102417.80
2023-01-25T11:28:48.304Z,102416.97
2023-01-25T11:31:19.753Z,102413.52
2023-01-25T11:33:48.336Z,102410.05
2023-01-25T11:36:25.097Z,102407.42
2023-01-25T11:39:08.250Z,102396.70
2023-01-25T11:41:55.466Z,102392.41
2023-01-25T11:44:58.183Z,102390.04
2023-01-25T11:47:40.253Z,102393.00
2023-01-25T11:50:15.195Z,102391.96
2023-01-25T11:53:00.106Z,102383.41
2023-01-25T11:55:32.730Z,102388.73
2023-01-25T11:58:10.567Z,102371.23
2023-01-25T12:00:48.474Z,102383.26
2023-01-25T12:03:40.780Z,102375.80
2023-01-25T12:06:14.721Z,102368.67
2023-01-25T12:08:53.601Z,102366.40
2023-01-25T12:11:31.833Z,102362.95
2023-01-25T12:14:07.212Z,102358.46
2023-01-25T12:16:44.110Z,102358.36
2023-01-25T12:19:47.939Z,102354.96
2023-01-25T12:22:30.109Z,102356.61
2023-01-25T12:25:04.773Z,102347.00
2023-01-25T12:27:46.111Z,102346.73
2023-01-25T12:30:15.105Z,102343.11
2023-01-25T12:32:47.937Z,102319.44
2023-01-25T12:35:25.469Z,102328.61
2023-01-25T12:37:57.309Z,102325.59
2023-01-25T12:40:34.629Z,102324.78
2023-01-25T12:43:02.861Z,102319.86
2023-01-25T12:45:34.295Z,102324.30
2023-01-25T12:48:10.350Z,102325.61
2023-01-25T12:50:42.175Z,102321.15
2023-01-25T12:53:18.108Z,102318.73
2023-01-25T12:55:46.729Z,102311.76
2023-01-25T12:58:32.801Z,102314.23
2023-01-25T13:01:14.458Z,102318.70
2023-01-25T13:03:56.440Z,102318.44
2023-01-25T13:06:31.157Z,102308.77
2023-01-25T13:09:04.414Z,102309.36
2023-01-25T13:11:34.944Z,102303.98
2023-01-25T13:14:28.539Z,102295.96
2023-01-25T13:17:11.418Z,102294.92
2023-01-25T13:19:43.533Z,102294.19
2023-01-25T13:22:12.666Z,102291.77
2023-01-25T13:25:12.090Z,102290.38
2023-01-25T13:27:40.473Z,102289.34
2023-01-25T13:30:29.491Z,102287.66
2023-01-25T13:32:59.910Z,102282.59
2023-01-25T13:35:36.205Z,102280.23
2023-01-25T13:38:24.295Z,102277.66
2023-01-25T13:41:14.160Z,102269.55
2023-01-25T13:43:50.661Z,102268.00
2023-01-25T13:46:23.150Z,102271.11
2023-01-25T13:49:02.712Z,102265.73
2023-01-25T13:51:35.321Z,102266.68
2023-01-25T13:54:04.005Z,102265.05
2023-01-25T13:56:32.282Z,102256.98
2023-01-25T13:59:00.567Z,102256.70
2023-01-25T14:01:30.438Z,102256.42
2023-01-25T14:04:01.460Z,102253.86
2023-01-25T14:06:31.712Z,102245.39
2023-01-25T14:09:06.715Z,102243.30
2023-01-25T14:11:36.225Z,102241.52
2023-01-25T14:14:17.767Z,102244.54
2023-01-25T14:16:45.993Z,102239.10
2023-01-25T14:19:25.577Z,102232.79
2023-01-25T14:22:12.099Z,102228.09
2023-01-25T14:24:40.384Z,102230.51
2023-01-25T14:27:13.772Z,102229.35
2023-01-25T14:29:46.751Z,102210.64
2023-01-25T14:32:19.947Z,102218.47
2023-01-25T14:34:48.187Z,102219.80
2023-01-25T14:37:17.832Z,102213.41
2023-01-25T14:39:46.344Z,102207.86
2023-01-25T14:42:14.885Z,102204.61
2023-01-25T14:44:43.299Z,102202.34
2023-01-25T14:47:22.601Z,102196.92
2023-01-25T14:49:50.849Z,102195.41
2023-01-25T14:52:20.007Z,102192.20
2023-01-25T14:54:52.383Z,102186.60
2023-01-25T14:57:31.917Z,102185.12
2023-01-25T15:00:01.061Z,102184.16
2023-01-25T15:02:35.980Z,102182.33
2023-01-25T15:05:15.020Z,102176.27
2023-01-25T15:07:45.853Z,102175.54
2023-01-25T15:10:19.618Z,102168.45
2023-01-25T15:13:12.780Z,102166.67
2023-01-25T15:15:52.306Z,102166.58
2023-01-25T15:18:45.270Z,102162.00
2023-01-25T15:21:15.222Z,102155.25
2023-01-25T15:23:44.928Z,102151.70
2023-01-25T15:26:17.561Z,102155.23
2023-01-25T15:28:45.973Z,102155.84
2023-01-25T15:31:17.971Z,102153.80
2023-01-25T15:33:46.191Z,102148.45
2023-01-25T15:36:15.312Z,102140.30
2023-01-25T15:38:43.816Z,102141.27
2023-01-25T15:41:13.054Z,102138.77
2023-01-25T15:43:41.517Z,102134.07
2023-01-25T15:46:16.565Z,102137.83
2023-01-25T15:48:45.671Z,102134.90
2023-01-25T15:51:13.994Z,102134.27
2023-01-25T15:53:42.514Z,102127.98
2023-01-25T15:56:14.045Z,102125.81
2023-01-25T15:58:43.811Z,102122.95
2023-01-25T16:01:12.126Z,102117.23
2023-01-25T16:03:40.905Z,102114.29
2023-01-25T16:06:23.268Z,102115.52
2023-01-25T16:08:51.470Z,102115.82
2023-01-25T16:11:19.789Z,102111.62
2023-01-25T16:13:47.994Z,102113.84
2023-01-25T16:16:18.147Z,102113.14
2023-01-25T16:18:46.546Z,102108.52
2023-01-25T16:21:15.301Z,102101.29
2023-01-25T16:23:42.710Z,102099.98
2023-01-25T16:26:16.559Z,102096.05
2023-01-25T16:28:44.758Z,102095.53
2023-01-25T16:31:29.827Z,102091.73
2023-01-25T16:34:00.412Z,102091.35
2023-01-25T16:36:28.986Z,102089.75
2023-01-25T16:38:57.170Z,102083.48
2023-01-25T16:41:25.321Z,102075.30
2023-01-25T16:43:53.623Z,102079.26
2023-01-25T16:46:23.171Z,102075.33
2023-01-25T16:48:52.527Z,102061.19
2023-01-25T16:51:22.740Z,102065.98
2023-01-25T16:53:52.514Z,102065.02
2023-01-25T16:56:22.157Z,102066.09
2023-01-25T16:58:51.266Z,102062.63
2023-01-25T17:01:20.383Z,102060.14
2023-01-25T17:03:48.879Z,102054.74
2023-01-25T17:06:18.939Z,102059.05
2023-01-25T17:08:47.743Z,102053.86
2023-01-25T17:11:15.325Z,102048.98
2023-01-25T17:13:43.523Z,102042.58
2023-01-25T17:16:11.791Z,102041.08
2023-01-25T17:18:39.997Z,102042.52
2023-01-25T17:21:08.209Z,102040.28
2023-01-25T17:23:37.228Z,102032.85
2023-01-25T17:26:06.594Z,102029.07
2023-01-25T17:28:35.193Z,102030.58
2023-01-25T17:31:03.896Z,102030.71
2023-01-25T17:33:31.526Z,102030.52
2023-01-25T17:36:03.018Z,102027.69
2023-01-25T17:38:31.243Z,102018.98
2023-01-25T17:41:03.988Z,102013.77
2023-01-25T17:43:34.429Z,102010.77
2023-01-25T17:46:12.147Z,102019.80
2023-01-25T17:48:40.725Z,102017.34
2023-01-25T17:51:08.948Z,102005.14
2023-01-25T17:53:37.154Z,102005.30
2023-01-25T17:56:07.734Z,102001.98
2023-01-25T17:58:36.986Z,102004.04
2023-01-25T18:01:14.172Z,102005.73
2023-01-25T18:03:43.231Z,101999.50
2023-01-25T18:06:14.161Z,101994.11
2023-01-25T18:08:43.678Z,101962.70
2023-01-25T18:11:14.603Z,101989.84
2023-01-25T18:13:44.086Z,101991.10
2023-01-25T18:16:13.783Z,101992.41
2023-01-25T18:18:43.536Z,101994.93
2023-01-25T18:21:13.504Z,101997.59
2023-01-25T18:23:46.321Z,101967.42
2023-01-25T18:26:18.428Z,101999.23
2023-01-25T18:28:46.801Z,101993.90
2023-01-25T18:31:16.689Z,101989.74
2023-01-25T18:33:45.303Z,101990.74
2023-01-25T18:36:15.424Z,101988.66
2023-01-25T18:38:43.926Z,101989.88
2023-01-25T18:41:12.437Z,101989.23
2023-01-25T18:43:40.810Z,101989.58
2023-01-25T18:46:09.313Z,101985.59
2023-01-25T18:48:37.639Z,101987.16
2023-01-25T18:51:07.768Z,101988.05
2023-01-25T18:53:37.031Z,101990.65
2023-01-25T18:56:07.258Z,101992.72
2023-01-25T18:58:36.438Z,101984.42
2023-01-25T19:01:08.101Z,101981.33
2023-01-25T19:03:36.629Z,101980.00
2023-01-25T19:06:05.638Z,101978.14
2023-01-25T19:08:35.681Z,101972.48
2023-01-25T19:11:06.009Z,101967.48
2023-01-25T19:13:35.374Z,101964.73
2023-01-25T19:16:05.581Z,101960.05
2023-01-25T19:18:35.805Z,101954.66
2023-01-25T19:21:07.162Z,101953.45
2023-01-25T19:23:36.789Z,101953.98
2023-01-25T19:26:05.737Z,101949.35
2023-01-25T19:28:34.647Z,101950.94
2023-01-25T19:31:05.956Z,101952.48
2023-01-25T19:33:34.391Z,101951.10
2023-01-25T19:36:04.022Z,101945.89
2023-01-25T19:38:32.591Z,101939.31
2023-01-25T19:41:04.892Z,101937.19
2023-01-25T19:43:33.133Z,101933.70
2023-01-25T19:46:18.958Z,101928.54
2023-01-25T19:48:53.040Z,101924.22
2023-01-25T19:51:37.883Z,101920.80
2023-01-25T19:54:11.855Z,101911.32
2023-01-25T19:56:41.046Z,101911.13
2023-01-25T19:59:12.649Z,101909.87
2023-01-25T20:01:43.171Z,101911.59
2023-01-25T20:04:12.404Z,101908.81
2023-01-25T20:06:40.776Z,101904.98
2023-01-25T20:09:12.338Z,101901.88
2023-01-25T20:11:40.752Z,101900.84
2023-01-25T20:14:11.295Z,101900.69
2023-01-25T20:16:39.663Z,101895.72
2023-01-25T20:19:09.570Z,101889.16
2023-01-25T20:21:38.959Z,101882.95
2023-01-25T20:24:09.624Z,101869.41
2023-01-25T20:26:41.875Z,101875.81
2023-01-25T20:29:10.777Z,101871.09
2023-01-25T20:31:40.564Z,101870.38
2023-01-25T20:34:11.755Z,101867.60
2023-01-25T20:36:40.703Z,101866.41
2023-01-25T20:39:10.364Z,101866.10
2023-01-25T20:41:38.563Z,101867.34
2023-01-25T20:44:07.838Z,101867.41
2023-01-25T20:46:37.945Z,101866.59
2023-01-25T20:49:08.320Z,101859.17
2023-01-25T20:51:36.830Z,101858.81
2023-01-25T20:54:05.636Z,101859.66
2023-01-25T20:56:33.910Z,101860.98
2023-01-25T20:59:02.125Z,101858.51
2023-01-25T21:01:35.965Z,101861.11
2023-01-25T21:04:06.631Z,101860.27
2023-01-25T21:06:35.336Z,101857.20
2023-01-25T21:09:04.274Z,101857.22
2023-01-25T21:11:31.635Z,101854.29
2023-01-25T21:13:59.840Z,101854.48
2023-01-25T21:16:28.427Z,101845.86
2023-01-25T21:18:58.107Z,101845.81
2023-01-25T21:21:27.720Z,101850.60
2023-01-25T21:23:57.459Z,101855.58
2023-01-25T21:26:27.432Z,101854.05
2023-01-25T21:28:55.850Z,101852.69
2023-01-25T21:31:25.207Z,101846.17
2023-01-25T21:33:53.880Z,101846.53
2023-01-25T21:36:22.183Z,101841.52
2023-01-25T21:38:52.337Z,101833.44
2023-01-25T21:41:23.444Z,101831.38
2023-01-25T21:44:10.732Z,101831.88
2023-01-25T21:46:39.709Z,101830.13
2023-01-25T21:49:27.194Z,101823.91
2023-01-25T21:51:58.496Z,101823.91
2023-01-25T21:54:28.425Z,101825.48
2023-01-25T21:56:58.399Z,101824.13
2023-01-25T21:59:26.914Z,101824.15
2023-01-25T22:01:55.830Z,101824.84
2023-01-25T22:04:25.390Z,101825.56
2023-01-25T22:06:53.805Z,101826.58
2023-01-25T22:09:22.694Z,101831.27
2023-01-25T22:11:51.104Z,101835.91
2023-01-25T22:14:19.326Z,101834.01
2023-01-25T22:16:47.627Z,101829.73
2023-01-25T22:19:17.151Z,101826.33
2023-01-25T22:21:45.633Z,101821.55
2023-01-25T22:24:14.042Z,101822.63
2023-01-25T22:26:49.131Z,101817.12
2023-01-25T22:29:17.555Z,101818.51
2023-01-25T22:31:45.786Z,101814.16
2023-01-25T22:34:13.995Z,101813.46
2023-01-25T22:36:42.219Z,101807.59
2023-01-25T22:39:13.551Z,101803.45
2023-01-25T22:41:42.280Z,101786.51
2023-01-25T22:44:10.628Z,101792.27
2023-01-25T22:46:38.842Z,101794.36
2023-01-25T22:49:07.054Z,101787.95
2023-01-25T22:51:35.243Z,101786.21
2023-01-25T22:54:03.545Z,101784.48
2023-01-25T22:56:32.586Z,101766.27
2023-01-25T22:59:01.258Z,101774.57
2023-01-25T23:01:29.598Z,101771.27
2023-01-25T23:03:58.316Z,101770.42
2023-01-25T23:06:27.775Z,101769.44
2023-01-25T23:08:58.970Z,101767.21
2023-01-25T23:11:31.391Z,101764.29
2023-01-25T23:14:17.575Z,101759.14
2023-01-25T23:16:46.426Z,101756.05
2023-01-25T23:19:15.228Z,101752.77
2023-01-25T23:21:43.470Z,101747.39
2023-01-25T23:24:11.979Z,101742.90
2023-01-25T23:26:45.480Z,101741.88
2023-01-25T23:29:13.912Z,101736.72
2023-01-25T23:31:42.201Z,101735.53
2023-01-25T23:34:12.184Z,101730.35
2023-01-25T23:36:41.593Z,101728.80
2023-01-25T23:39:12.028Z,101725.34
2023-01-25T23:41:40.475Z,101719.98
2023-01-25T23:44:09.181Z,101712.55
2023-01-25T23:46:36.685Z,101707.39
2023-01-25T23:49:04.988Z,101706.00
2023-01-25T23:51:33.323Z,101699.79
2023-01-25T23:54:01.556Z,101706.89
2023-01-25T23:56:29.759Z,101706.21
2023-01-25T23:58:58.062Z,101705.50
